Dades meteomassalio
Diari Summary for Abril 17, 2018 Units:  Both    English   Metric
« Previous Day
Next Day »
Diari Semanal Mensual Anual Personalitzat
  Maxima: Minima: Mijana:
Temperatura: TemperatureC °F /  -17.8 °C 4.4 °F /  -15.3 °C 13.2 °F /  -10.4 °C
Rosada: DewpointC °F /  -17.8 °C 3.4 °F /  -15.9 °C 7.6 °F /  -13.6 °C
Humitat: Humidity % 41 % 72 %
Velocitat del vent: WindSpeedKMH mph /  0 km/h - 2.4 mph /  3.9 km/h
Racha vent: WindSpeedGustKMH mph /  0 km/h - -
Vent:- - South
Pressio: PressurehPa in /  0 hPa 1023.6 in /  34659.1 hPa -
Pluja: 0.3 in /  7.62 mm    
Historical Graphs
 
 
Tabular Data for Abril 17, 2018
Time Temperature Dew Point Pressure Wind Wind Speed Wind Gust Humidity Rainfall Rate (Hourly) solar Conditions
TemperatureC °F /  -17.8 °C DewpointC °F /  -17.8 °C PressurehPa in /  0 hPa Calm     Humidity % HourlyPrecipMM in /  0 mm SolarRadiationWatts/m^2 W/m2 Conditions
00:01 8.9 °F /  -12.8 °C 6.7 °F /  -14.1 °C 1023.6 in /  34659.1 hPa Calm     86 % 0.0 in /  0 mm 0.0 W/m2 RA
00:06 8.3 °F /  -13.2 °C 6.1 °F /  -14.4 °C 1023.6 in /  34659.1 hPa Calm     86 % 0.0 in /  0 mm 0.0 W/m2 CLR
00:11 8.3 °F /  -13.2 °C 6.1 °F /  -14.4 °C 1023.9 in /  34669.3 hPa Calm     86 % 0.0 in /  0 mm 0.0 W/m2 CLR
00:16 8.3 °F /  -13.2 °C 6.3 °F /  -14.3 °C 1023.9 in /  34669.3 hPa Calm     87 % 0.0 in /  0 mm 0.0 W/m2 CLR
00:21 7.8 °F /  -13.4 °C 5.9 °F /  -14.5 °C 1023.9 in /  34669.3 hPa Calm     88 % 0.0 in /  0 mm 0.0 W/m2 CLR
00:26 7.8 °F /  -13.4 °C 5.9 °F /  -14.5 °C 1023.9 in /  34669.3 hPa Calm     88 % 0.0 in /  0 mm 0.0 W/m2 CLR
00:31 7.8 °F /  -13.4 °C 5.9 °F /  -14.5 °C 1023.9 in /  34669.3 hPa Calm     88 % 0.0 in /  0 mm 0.0 W/m2 CLR
00:36 7.8 °F /  -13.4 °C 6.1 °F /  -14.4 °C 1024.3 in /  34682.8 hPa Calm     89 % 0.0 in /  0 mm 0.0 W/m2 CLR
00:41 7.8 °F /  -13.4 °C 6.1 °F /  -14.4 °C 1024.3 in /  34682.8 hPa Calm     89 % 0.0 in /  0 mm 0.0 W/m2 CLR
00:46 7.8 °F /  -13.4 °C 6.1 °F /  -14.4 °C 1024.3 in /  34682.8 hPa Calm     89 % 0.0 in /  0 mm 0.0 W/m2 CLR
00:51 8.3 °F /  -13.2 °C 6.8 °F /  -14 °C 1024.3 in /  34682.8 hPa Calm     90 % 0.0 in /  0 mm 0.0 W/m2 CLR
00:56 8.9 °F /  -12.8 °C 7.2 °F /  -13.8 °C 1024.3 in /  34682.8 hPa Calm     89 % 0.0 in /  0 mm 0.0 W/m2 CLR
01:01 8.3 °F /  -13.2 °C 6.8 °F /  -14 °C 1024.3 in /  34682.8 hPa Calm     90 % 0.0 in /  0 mm 0.0 W/m2 CLR
01:06 8.3 °F /  -13.2 °C 6.8 °F /  -14 °C 1024.3 in /  34682.8 hPa Calm     90 % 0.0 in /  0 mm 0.0 W/m2 CLR
01:11 7.8 °F /  -13.4 °C 6.2 °F /  -14.3 °C 1024.3 in /  34682.8 hPa Calm     90 % 0.0 in /  0 mm 0.0 W/m2 CLR
01:16 7.8 °F /  -13.4 °C 6.2 °F /  -14.3 °C 1024.6 in /  34693 hPa Calm     90 % 0.0 in /  0 mm 0.0 W/m2 CLR
01:21 7.2 °F /  -13.8 °C 5.7 °F /  -14.6 °C 1024.6 in /  34693 hPa Calm     90 % 0.0 in /  0 mm 0.0 W/m2 CLR
01:26 7.2 °F /  -13.8 °C 5.7 °F /  -14.6 °C 1024.6 in /  34693 hPa Calm     90 % 0.0 in /  0 mm 0.0 W/m2 CLR
01:31 7.2 °F /  -13.8 °C 5.8 °F /  -14.6 °C 1024.6 in /  34693 hPa Calm     91 % 0.0 in /  0 mm 0.0 W/m2 CLR
01:36 7.2 °F /  -13.8 °C 5.8 °F /  -14.6 °C 1024.6 in /  34693 hPa Calm     91 % 0.0 in /  0 mm 0.0 W/m2 CLR
01:41 7.2 °F /  -13.8 °C 5.8 °F /  -14.6 °C 1024.6 in /  34693 hPa Calm     91 % 0.0 in /  0 mm 0.0 W/m2 CLR
01:46 7.2 °F /  -13.8 °C 5.8 °F /  -14.6 °C 1024.6 in /  34693 hPa Calm     91 % 0.0 in /  0 mm 0.0 W/m2 CLR
01:51 6.7 °F /  -14.1 °C 5.3 °F /  -14.8 °C 1024.6 in /  34693 hPa Calm     91 % 0.0 in /  0 mm 0.0 W/m2 CLR
01:56 6.7 °F /  -14.1 °C 5.3 °F /  -14.8 °C 1024.9 in /  34703.1 hPa Calm     91 % 0.0 in /  0 mm 0.0 W/m2 CLR
02:01 6.7 °F /  -14.1 °C 5.3 °F /  -14.8 °C 1024.9 in /  34703.1 hPa Calm     91 % 0.0 in /  0 mm 0.0 W/m2 CLR
02:06 6.7 °F /  -14.1 °C 5.3 °F /  -14.8 °C 1024.9 in /  34703.1 hPa Calm     91 % 0.0 in /  0 mm 0.0 W/m2 CLR
02:11 6.7 °F /  -14.1 °C 5.3 °F /  -14.8 °C 1024.9 in /  34703.1 hPa Calm     91 % 0.0 in /  0 mm 0.0 W/m2 CLR
02:16 6.7 °F /  -14.1 °C 5.3 °F /  -14.8 °C 1024.9 in /  34703.1 hPa Calm     91 % 0.0 in /  0 mm 0.0 W/m2 CLR
02:21 6.7 °F /  -14.1 °C 5.3 °F /  -14.8 °C 1024.9 in /  34703.1 hPa Calm     91 % 0.0 in /  0 mm 0.0 W/m2 CLR
02:26 6.7 °F /  -14.1 °C 5.3 °F /  -14.8 °C 1024.9 in /  34703.1 hPa Calm     91 % 0.0 in /  0 mm 0.0 W/m2 CLR
02:31 6.7 °F /  -14.1 °C 5.3 °F /  -14.8 °C 1024.9 in /  34703.1 hPa Calm     91 % 0.0 in /  0 mm 0.0 W/m2 CLR
02:36 6.1 °F /  -14.4 °C 4.8 °F /  -15.1 °C 1024.9 in /  34703.1 hPa Calm     91 % 0.0 in /  0 mm 0.0 W/m2 CLR
02:41 6.7 °F /  -14.1 °C 5.3 °F /  -14.8 °C 1024.9 in /  34703.1 hPa Calm     91 % 0.0 in /  0 mm 0.0 W/m2 CLR
02:46 6.7 °F /  -14.1 °C 5.3 °F /  -14.8 °C 1024.6 in /  34693 hPa Calm     91 % 0.0 in /  0 mm 0.0 W/m2 CLR
02:51 6.1 °F /  -14.4 °C 4.8 °F /  -15.1 °C 1024.6 in /  34693 hPa Calm     91 % 0.0 in /  0 mm 0.0 W/m2 CLR
02:56 6.7 °F /  -14.1 °C 5.3 °F /  -14.8 °C 1024.6 in /  34693 hPa Calm     91 % 0.0 in /  0 mm 0.0 W/m2 CLR
03:01 6.1 °F /  -14.4 °C 4.9 °F /  -15.1 °C 1024.6 in /  34693 hPa Calm     92 % 0.0 in /  0 mm 0.0 W/m2 CLR
03:06 6.1 °F /  -14.4 °C 4.9 °F /  -15.1 °C 1024.6 in /  34693 hPa Calm     92 % 0.0 in /  0 mm 0.0 W/m2 CLR
03:11 6.1 °F /  -14.4 °C 4.9 °F /  -15.1 °C 1024.9 in /  34703.1 hPa Calm     92 % 0.0 in /  0 mm 0.0 W/m2 CLR
03:16 6.1 °F /  -14.4 °C 4.9 °F /  -15.1 °C 1024.9 in /  34703.1 hPa Calm     92 % 0.0 in /  0 mm 0.0 W/m2 CLR
03:21 6.7 °F /  -14.1 °C 5.4 °F /  -14.8 °C 1024.9 in /  34703.1 hPa Calm     92 % 0.0 in /  0 mm 0.0 W/m2 CLR
03:26 6.1 °F /  -14.4 °C 4.9 °F /  -15.1 °C 1024.9 in /  34703.1 hPa Calm     92 % 0.0 in /  0 mm 0.0 W/m2 CLR
03:31 6.1 °F /  -14.4 °C 4.9 °F /  -15.1 °C 1024.9 in /  34703.1 hPa Calm     92 % 0.0 in /  0 mm 0.0 W/m2 CLR
03:36 6.1 °F /  -14.4 °C 4.9 °F /  -15.1 °C 1024.9 in /  34703.1 hPa Calm     92 % 0.0 in /  0 mm 0.0 W/m2 CLR
03:41 6.1 °F /  -14.4 °C 4.9 °F /  -15.1 °C 1024.9 in /  34703.1 hPa Calm     92 % 0.0 in /  0 mm 0.0 W/m2 CLR
03:46 6.1 °F /  -14.4 °C 4.9 °F /  -15.1 °C 1024.9 in /  34703.1 hPa Calm     92 % 0.0 in /  0 mm 0.0 W/m2 CLR
03:47 6.1 °F /  -14.4 °C 4.9 °F /  -15.1 °C 1024.9 in /  34703.1 hPa Calm     92 % 0.0 in /  0 mm 0.0 W/m2 CLR
03:52 6.1 °F /  -14.4 °C 4.9 °F /  -15.1 °C 1024.9 in /  34703.1 hPa Calm     92 % 0.0 in /  0 mm 0.0 W/m2 CLR
03:57 6.1 °F /  -14.4 °C 4.9 °F /  -15.1 °C 1025.3 in /  34716.7 hPa Calm     92 % 0.0 in /  0 mm 0.0 W/m2 CLR
04:02 6.1 °F /  -14.4 °C 4.9 °F /  -15.1 °C 1025.3 in /  34716.7 hPa Calm     92 % 0.0 in /  0 mm 0.0 W/m2 CLR
04:07 6.1 °F /  -14.4 °C 4.9 °F /  -15.1 °C 1025.3 in /  34716.7 hPa Calm     92 % 0.0 in /  0 mm 0.0 W/m2 CLR
04:12 6.1 °F /  -14.4 °C 4.9 °F /  -15.1 °C 1025.3 in /  34716.7 hPa Calm     92 % 0.0 in /  0 mm 0.0 W/m2 CLR
04:17 6.1 °F /  -14.4 °C 4.9 °F /  -15.1 °C 1025.3 in /  34716.7 hPa Calm     92 % 0.0 in /  0 mm 0.0 W/m2 CLR
04:22 6.1 °F /  -14.4 °C 4.9 °F /  -15.1 °C 1025.3 in /  34716.7 hPa Calm     92 % 0.0 in /  0 mm 0.0 W/m2 CLR
04:27 5.6 °F /  -14.7 °C 4.3 °F /  -15.4 °C 1025.3 in /  34716.7 hPa Calm     92 % 0.0 in /  0 mm 0.0 W/m2 CLR
04:32 5.6 °F /  -14.7 °C 4.3 °F /  -15.4 °C 1025.3 in /  34716.7 hPa Calm     92 % 0.0 in /  0 mm 0.0 W/m2 CLR
04:37 5.6 °F /  -14.7 °C 4.3 °F /  -15.4 °C 1025.6 in /  34726.8 hPa Calm     92 % 0.0 in /  0 mm 0.0 W/m2 CLR
04:42 5.6 °F /  -14.7 °C 4.3 °F /  -15.4 °C 1025.6 in /  34726.8 hPa Calm     92 % 0.0 in /  0 mm 0.0 W/m2 CLR
04:47 5.6 °F /  -14.7 °C 4.3 °F /  -15.4 °C 1025.6 in /  34726.8 hPa Calm     92 % 0.0 in /  0 mm 0.0 W/m2 CLR
04:52 5.6 °F /  -14.7 °C 4.3 °F /  -15.4 °C 1025.6 in /  34726.8 hPa Calm     92 % 0.0 in /  0 mm 0.0 W/m2 CLR
04:57 5.6 °F /  -14.7 °C 4.3 °F /  -15.4 °C 1025.6 in /  34726.8 hPa Calm     92 % 0.0 in /  0 mm 0.0 W/m2 CLR
05:02 5.6 °F /  -14.7 °C 4.3 °F /  -15.4 °C 1025.6 in /  34726.8 hPa Calm     92 % 0.0 in /  0 mm 0.0 W/m2 CLR
05:07 5.6 °F /  -14.7 °C 4.3 °F /  -15.4 °C 1025.6 in /  34726.8 hPa Calm     92 % 0.0 in /  0 mm 0.0 W/m2 CLR
05:12 5.6 °F /  -14.7 °C 4.3 °F /  -15.4 °C 1025.6 in /  34726.8 hPa Calm     92 % 0.0 in /  0 mm 0.0 W/m2 CLR
05:17 5.6 °F /  -14.7 °C 4.3 °F /  -15.4 °C 1025.3 in /  34716.7 hPa Calm     92 % 0.0 in /  0 mm 0.0 W/m2 CLR
05:22 6.1 °F /  -14.4 °C 4.9 °F /  -15.1 °C 1025.3 in /  34716.7 hPa Calm     92 % 0.0 in /  0 mm 0.0 W/m2 CLR
05:27 5.6 °F /  -14.7 °C 4.3 °F /  -15.4 °C 1025.3 in /  34716.7 hPa Calm     92 % 0.0 in /  0 mm 0.0 W/m2 CLR
05:32 5.6 °F /  -14.7 °C 4.3 °F /  -15.4 °C 1025.6 in /  34726.8 hPa Calm     92 % 0.0 in /  0 mm 0.0 W/m2 CLR
05:37 5.6 °F /  -14.7 °C 4.3 °F /  -15.4 °C 1025.6 in /  34726.8 hPa Calm     92 % 0.0 in /  0 mm 0.0 W/m2 CLR
05:43 5.0 °F /  -15 °C 3.8 °F /  -15.7 °C 1025.6 in /  34726.8 hPa Calm     92 % 0.0 in /  0 mm 0.0 W/m2 CLR
05:48 5.6 °F /  -14.7 °C 4.3 °F /  -15.4 °C 1025.6 in /  34726.8 hPa Calm     92 % 0.0 in /  0 mm 0.0 W/m2 CLR
05:53 5.6 °F /  -14.7 °C 4.3 °F /  -15.4 °C 1025.6 in /  34726.8 hPa Calm     92 % 0.0 in /  0 mm 0.0 W/m2 CLR
05:58 5.0 °F /  -15 °C 3.9 °F /  -15.6 °C 1025.6 in /  34726.8 hPa Calm     93 % 0.0 in /  0 mm 0.0 W/m2 CLR
06:03 5.0 °F /  -15 °C 3.9 °F /  -15.6 °C 1025.3 in /  34716.7 hPa Calm     93 % 0.0 in /  0 mm 0.0 W/m2 CLR
06:08 5.0 °F /  -15 °C 3.8 °F /  -15.7 °C 1025.3 in /  34716.7 hPa Calm     92 % 0.0 in /  0 mm 0.0 W/m2 CLR
06:13 5.0 °F /  -15 °C 3.8 °F /  -15.7 °C 1025.3 in /  34716.7 hPa Calm     92 % 0.0 in /  0 mm 0.0 W/m2 CLR
06:18 5.0 °F /  -15 °C 3.8 °F /  -15.7 °C 1025.3 in /  34716.7 hPa Calm     92 % 0.0 in /  0 mm 0.0 W/m2 CLR
06:23 5.0 °F /  -15 °C 3.9 °F /  -15.6 °C 1025.3 in /  34716.7 hPa Calm     93 % 0.0 in /  0 mm 0.0 W/m2 CLR
06:28 5.0 °F /  -15 °C 3.9 °F /  -15.6 °C 1025.3 in /  34716.7 hPa Calm     93 % 0.0 in /  0 mm 0.0 W/m2 CLR
06:33 5.0 °F /  -15 °C 3.9 °F /  -15.6 °C 1025.3 in /  34716.7 hPa Calm     93 % 0.0 in /  0 mm 0.0 W/m2 CLR
06:38 5.0 °F /  -15 °C 3.8 °F /  -15.7 °C 1025.3 in /  34716.7 hPa Calm     92 % 0.0 in /  0 mm 0.0 W/m2 CLR
06:43 5.0 °F /  -15 °C 3.8 °F /  -15.7 °C 1025.6 in /  34726.8 hPa Calm     92 % 0.0 in /  0 mm 0.0 W/m2 CLR
06:48 5.0 °F /  -15 °C 3.8 °F /  -15.7 °C 1025.6 in /  34726.8 hPa Calm     92 % 0.0 in /  0 mm 0.0 W/m2 CLR
06:53 5.0 °F /  -15 °C 3.9 °F /  -15.6 °C 1025.6 in /  34726.8 hPa Calm     93 % 0.0 in /  0 mm 0.0 W/m2 CLR
06:58 5.0 °F /  -15 °C 3.9 °F /  -15.6 °C 1025.6 in /  34726.8 hPa Calm     93 % 0.0 in /  0 mm 0.0 W/m2 CLR
07:03 5.0 °F /  -15 °C 3.9 °F /  -15.6 °C 1025.6 in /  34726.8 hPa Calm     93 % 0.0 in /  0 mm 0.0 W/m2 CLR
07:08 5.0 °F /  -15 °C 3.9 °F /  -15.6 °C 1025.6 in /  34726.8 hPa Calm     93 % 0.0 in /  0 mm 0.0 W/m2 OVC
07:13 5.0 °F /  -15 °C 3.9 °F /  -15.6 °C 1026.0 in /  34740.4 hPa Calm     93 % 0.0 in /  0 mm 0.0 W/m2 OVC
07:18 5.0 °F /  -15 °C 3.9 °F /  -15.6 °C 1026.0 in /  34740.4 hPa Calm     93 % 0.3 in /  7.62 mm 5.0 W/m2 RA
07:23 5.0 °F /  -15 °C 3.9 °F /  -15.6 °C 1026.0 in /  34740.4 hPa Calm     93 % 0.3 in /  7.62 mm 7.0 W/m2 BKN
07:28 5.0 °F /  -15 °C 3.8 °F /  -15.7 °C 1026.0 in /  34740.4 hPa Calm     92 % 0.3 in /  7.62 mm 11.0 W/m2 BKN
07:33 5.0 °F /  -15 °C 3.9 °F /  -15.6 °C 1026.0 in /  34740.4 hPa Calm     93 % 0.3 in /  7.62 mm 12.0 W/m2 BKN
07:38 5.0 °F /  -15 °C 3.9 °F /  -15.6 °C 1026.0 in /  34740.4 hPa Calm     93 % 0.3 in /  7.62 mm 14.0 W/m2 BKN
07:43 4.4 °F /  -15.3 °C 3.4 °F /  -15.9 °C 1026.3 in /  34750.5 hPa Calm     93 % 0.3 in /  7.62 mm 18.0 W/m2 BKN
07:48 4.4 °F /  -15.3 °C 3.4 °F /  -15.9 °C 1026.3 in /  34750.5 hPa Calm     93 % 0.3 in /  7.62 mm 23.0 W/m2 BKN
07:53 4.4 °F /  -15.3 °C 3.4 °F /  -15.9 °C 1026.3 in /  34750.5 hPa Calm     93 % 0.3 in /  7.62 mm 30.0 W/m2 BKN
07:58 5.0 °F /  -15 °C 3.9 °F /  -15.6 °C 1026.3 in /  34750.5 hPa Calm     93 % 0.3 in /  7.62 mm 28.0 W/m2 BKN
08:03 5.0 °F /  -15 °C 3.9 °F /  -15.6 °C 1026.3 in /  34750.5 hPa Calm     93 % 0.3 in /  7.62 mm 37.0 W/m2 BKN
08:08 5.0 °F /  -15 °C 3.9 °F /  -15.6 °C 1026.3 in /  34750.5 hPa Calm     93 % 0.3 in /  7.62 mm 65.0 W/m2 SCT
08:13 5.0 °F /  -15 °C 3.9 °F /  -15.6 °C 1026.6 in /  34760.7 hPa Calm     93 % 0.3 in /  7.62 mm 67.0 W/m2 FEW
08:18 5.6 °F /  -14.7 °C 4.5 °F /  -15.3 °C 1026.6 in /  34760.7 hPa Calm     93 % 0.0 in /  0 mm 95.0 W/m2 FEW
08:23 6.1 °F /  -14.4 °C 5.1 °F /  -14.9 °C 1026.6 in /  34760.7 hPa Calm     93 % 0.0 in /  0 mm 105.0 W/m2 CLR
08:28 6.1 °F /  -14.4 °C 5.1 °F /  -14.9 °C 1026.6 in /  34760.7 hPa Calm     93 % 0.0 in /  0 mm 90.0 W/m2 CLR
08:33 6.7 °F /  -14.1 °C 5.6 °F /  -14.7 °C 1026.6 in /  34760.7 hPa Calm     93 % 0.0 in /  0 mm 98.0 W/m2 CLR
08:38 6.7 °F /  -14.1 °C 5.6 °F /  -14.7 °C 1027.0 in /  34774.2 hPa Calm     93 % 0.0 in /  0 mm 121.0 W/m2 CLR
08:43 6.7 °F /  -14.1 °C 5.6 °F /  -14.7 °C 1027.0 in /  34774.2 hPa Calm     93 % 0.0 in /  0 mm 155.0 W/m2 CLR
08:48 7.2 °F /  -13.8 °C 6.0 °F /  -14.4 °C 1027.0 in /  34774.2 hPa Calm     92 % 0.0 in /  0 mm 195.0 W/m2 CLR
08:53 7.8 °F /  -13.4 °C 6.6 °F /  -14.1 °C 1027.0 in /  34774.2 hPa Calm     92 % 0.0 in /  0 mm 214.0 W/m2 CLR
08:58 8.3 °F /  -13.2 °C 7.1 °F /  -13.8 °C 1027.0 in /  34774.2 hPa Calm     92 % 0.0 in /  0 mm 195.0 W/m2 CLR
09:03 8.3 °F /  -13.2 °C 7.1 °F /  -13.8 °C 1027.0 in /  34774.2 hPa Calm     92 % 0.0 in /  0 mm 62.0 W/m2 CLR
09:08 8.9 °F /  -12.8 °C 7.5 °F /  -13.6 °C 1027.0 in /  34774.2 hPa Calm     91 % 0.0 in /  0 mm 209.0 W/m2 CLR
09:13 9.4 °F /  -12.6 °C 7.9 °F /  -13.4 °C 1027.0 in /  34774.2 hPa Calm     90 % 0.0 in /  0 mm 274.0 W/m2 CLR
09:18 10.0 °F /  -12.2 °C 8.3 °F /  -13.2 °C 1027.0 in /  34774.2 hPa Calm     89 % 0.0 in /  0 mm 302.0 W/m2 CLR
09:23 10.6 °F /  -11.9 °C 8.7 °F /  -12.9 °C 1027.0 in /  34774.2 hPa Calm     88 % 0.0 in /  0 mm 322.0 W/m2 CLR
09:28 11.7 °F /  -11.3 °C 9.6 °F /  -12.4 °C 1027.0 in /  34774.2 hPa Calm     87 % 0.0 in /  0 mm 336.0 W/m2 CLR
09:33 12.2 °F /  -11 °C 10.1 °F /  -12.2 °C 1027.0 in /  34774.2 hPa Calm     87 % 0.0 in /  0 mm 366.0 W/m2 CLR
09:38 12.8 °F /  -10.7 °C 10.7 °F /  -11.8 °C 1027.0 in /  34774.2 hPa Calm     87 % 0.0 in /  0 mm 387.0 W/m2 CLR
09:43 13.3 °F /  -10.4 °C 11.2 °F /  -11.6 °C 1027.0 in /  34774.2 hPa Calm     87 % 0.0 in /  0 mm 394.0 W/m2 CLR
09:48 13.3 °F /  -10.4 °C 10.9 °F /  -11.7 °C 1027.3 in /  34784.4 hPa Calm     85 % 0.0 in /  0 mm 424.0 W/m2 CLR
09:53 13.9 °F /  -10.1 °C 11.2 °F /  -11.6 °C 1027.3 in /  34784.4 hPa Calm     84 % 0.0 in /  0 mm 446.0 W/m2 CLR
09:58 13.9 °F /  -10.1 °C 11.2 °F /  -11.6 °C 1027.3 in /  34784.4 hPa Calm     84 % 0.0 in /  0 mm 461.0 W/m2 CLR
10:03 14.4 °F /  -9.8 °C 11.6 °F /  -11.3 °C 1027.0 in /  34774.2 hPa Calm     83 % 0.0 in /  0 mm 478.0 W/m2 CLR
10:08 15.0 °F /  -9.4 °C 11.4 °F /  -11.4 °C 1027.3 in /  34784.4 hPa Calm     79 % 0.0 in /  0 mm 487.0 W/m2 CLR
10:13 15.0 °F /  -9.4 °C 11.0 °F /  -11.7 °C 1027.3 in /  34784.4 hPa Calm     77 % 0.0 in /  0 mm 490.0 W/m2 CLR
10:18 15.0 °F /  -9.4 °C 11.2 °F /  -11.6 °C 1027.3 in /  34784.4 hPa Calm     78 % 0.0 in /  0 mm 520.0 W/m2 CLR
10:23 15.0 °F /  -9.4 °C 10.8 °F /  -11.8 °C 1027.3 in /  34784.4 hPa Calm     76 % 0.0 in /  0 mm 534.0 W/m2 CLR
10:28 15.0 °F /  -9.4 °C 10.6 °F /  -11.9 °C 1027.3 in /  34784.4 hPa Calm     75 % 0.0 in /  0 mm 548.0 W/m2 CLR
10:33 15.6 °F /  -9.1 °C 9.9 °F /  -12.3 °C 1027.3 in /  34784.4 hPa West 5.6 mph /  9 km/h 5.6 mph /  9 km/h 69 % 0.0 in /  0 mm 563.0 W/m2 CLR
10:38 15.6 °F /  -9.1 °C 9.7 °F /  -12.4 °C 1027.3 in /  34784.4 hPa NW 8.0 mph /  12.9 km/h 8.0 mph /  12.9 km/h 68 % 0.0 in /  0 mm 577.0 W/m2 CLR
10:43 16.1 °F /  -8.8 °C 9.1 °F /  -12.7 °C 1027.3 in /  34784.4 hPa NW 9.7 mph /  15.6 km/h 9.7 mph /  15.6 km/h 63 % 0.0 in /  0 mm 592.0 W/m2 CLR
10:48 16.7 °F /  -8.5 °C 10.1 °F /  -12.2 °C 1027.3 in /  34784.4 hPa West 13.0 mph /  20.9 km/h 13.0 mph /  20.9 km/h 65 % 0.0 in /  0 mm 605.0 W/m2 CLR
10:53 17.2 °F /  -8.2 °C 10.6 °F /  -11.9 °C 1027.3 in /  34784.4 hPa NW 18.5 mph /  29.8 km/h 18.5 mph /  29.8 km/h 65 % 0.0 in /  0 mm 619.0 W/m2 CLR
10:58 17.8 °F /  -7.9 °C 11.3 °F /  -11.5 °C 1027.3 in /  34784.4 hPa WNW 9.7 mph /  15.6 km/h 9.7 mph /  15.6 km/h 66 % 0.0 in /  0 mm 619.0 W/m2 CLR
11:03 17.2 °F /  -8.2 °C 10.1 °F /  -12.2 °C 1027.3 in /  34784.4 hPa NNW 9.3 mph /  15 km/h 9.3 mph /  15 km/h 63 % 0.0 in /  0 mm 645.0 W/m2 CLR
11:08 17.8 °F /  -7.9 °C 10.9 °F /  -11.7 °C 1027.3 in /  34784.4 hPa WNW 14.8 mph /  23.8 km/h 14.8 mph /  23.8 km/h 64 % 0.0 in /  0 mm 659.0 W/m2 CLR
11:13 17.8 °F /  -7.9 °C 9.9 °F /  -12.3 °C 1027.0 in /  34774.2 hPa WNW 9.3 mph /  15 km/h 9.3 mph /  15 km/h 60 % 0.0 in /  0 mm 671.0 W/m2 CLR
11:18 17.8 °F /  -7.9 °C 10.4 °F /  -12 °C 1027.3 in /  34784.4 hPa WNW 9.3 mph /  15 km/h 9.3 mph /  15 km/h 62 % 0.0 in /  0 mm 682.0 W/m2 CLR
11:54 17.8 °F /  -7.9 °C 9.9 °F /  -12.3 °C 1027.0 in /  34774.2 hPa WNW 6.4 mph /  10.3 km/h 6.4 mph /  10.3 km/h 60 % 0.0 in /  0 mm 737.0 W/m2 CLR
11:59 17.8 °F /  -7.9 °C 9.2 °F /  -12.7 °C 1027.0 in /  34774.2 hPa WSW 12.9 mph /  20.8 km/h 12.9 mph /  20.8 km/h 57 % 0.0 in /  0 mm 765.0 W/m2 CLR
12:04 18.9 °F /  -7.3 °C 10.2 °F /  -12.1 °C 1027.0 in /  34774.2 hPa NNW 14.8 mph /  23.8 km/h 14.8 mph /  23.8 km/h 57 % 0.0 in /  0 mm 782.0 W/m2 CLR
12:09 18.9 °F /  -7.3 °C 10.7 °F /  -11.8 °C 1027.0 in /  34774.2 hPa NW 14.8 mph /  23.8 km/h 14.8 mph /  23.8 km/h 59 % 0.0 in /  0 mm 791.0 W/m2 CLR
12:14 19.4 °F /  -7 °C 10.4 °F /  -12 °C 1027.0 in /  34774.2 hPa North 9.3 mph /  15 km/h 9.3 mph /  15 km/h 56 % 0.0 in /  0 mm 802.0 W/m2 CLR
12:19 19.4 °F /  -7 °C 10.9 °F /  -11.7 °C 1027.0 in /  34774.2 hPa NNW 7.4 mph /  11.9 km/h 7.4 mph /  11.9 km/h 58 % 0.0 in /  0 mm 810.0 W/m2 CLR
12:24 19.4 °F /  -7 °C 10.4 °F /  -12 °C 1027.0 in /  34774.2 hPa NNW 4.8 mph /  7.7 km/h 4.8 mph /  7.7 km/h 56 % 0.0 in /  0 mm 817.0 W/m2 CLR
12:29 19.4 °F /  -7 °C 11.2 °F /  -11.6 °C 1027.0 in /  34774.2 hPa NNW 5.6 mph /  9 km/h 5.6 mph /  9 km/h 59 % 0.0 in /  0 mm 824.0 W/m2 CLR
12:34 19.4 °F /  -7 °C 10.2 °F /  -12.1 °C 1027.0 in /  34774.2 hPa West 9.3 mph /  15 km/h 9.3 mph /  15 km/h 55 % 0.0 in /  0 mm 833.0 W/m2 CLR
12:39 19.4 °F /  -7 °C 9.9 °F /  -12.3 °C 1027.0 in /  34774.2 hPa NNW 5.6 mph /  9 km/h 5.6 mph /  9 km/h 54 % 0.0 in /  0 mm 840.0 W/m2 CLR
12:44 19.4 °F /  -7 °C 10.4 °F /  -12 °C 1027.0 in /  34774.2 hPa North 9.3 mph /  15 km/h 9.3 mph /  15 km/h 56 % 0.0 in /  0 mm 846.0 W/m2 CLR
12:49 20.0 °F /  -6.7 °C 11.5 °F /  -11.4 °C 1027.0 in /  34774.2 hPa North 5.6 mph /  9 km/h 5.6 mph /  9 km/h 58 % 0.0 in /  0 mm 851.0 W/m2 CLR
12:54 19.4 °F /  -7 °C 10.2 °F /  -12.1 °C 1026.6 in /  34760.7 hPa North 13.0 mph /  20.9 km/h 13.0 mph /  20.9 km/h 55 % 0.0 in /  0 mm 858.0 W/m2 CLR
12:59 20.0 °F /  -6.7 °C 10.9 °F /  -11.7 °C 1026.6 in /  34760.7 hPa North 14.8 mph /  23.8 km/h 14.8 mph /  23.8 km/h 56 % 0.0 in /  0 mm 861.0 W/m2 CLR
13:05 20.0 °F /  -6.7 °C 10.9 °F /  -11.7 °C 1026.6 in /  34760.7 hPa NNW 13.0 mph /  20.9 km/h   56 % 0.0 in /  0 mm 865.0 W/m2 CLR
13:10 19.4 °F /  -7 °C 10.7 °F /  -11.8 °C 1026.6 in /  34760.7 hPa NNW 14.8 mph /  23.8 km/h 14.8 mph /  23.8 km/h 57 % 0.0 in /  0 mm 870.0 W/m2 CLR
13:15 20.0 °F /  -6.7 °C 11.2 °F /  -11.6 °C 1026.6 in /  34760.7 hPa NW 9.3 mph /  15 km/h 9.3 mph /  15 km/h 57 % 0.0 in /  0 mm 877.0 W/m2 CLR
13:25 20.6 °F /  -6.3 °C 10.9 °F /  -11.7 °C 1026.3 in /  34750.5 hPa WNW 14.5 mph /  23.3 km/h 14.5 mph /  23.3 km/h 54 % 0.0 in /  0 mm 886.0 W/m2 CLR
13:30 20.6 °F /  -6.3 °C 10.7 °F /  -11.8 °C 1026.3 in /  34750.5 hPa NW 11.1 mph /  17.9 km/h 11.1 mph /  17.9 km/h 53 % 0.0 in /  0 mm 889.0 W/m2 CLR
13:35 20.6 °F /  -6.3 °C 10.9 °F /  -11.7 °C 1026.3 in /  34750.5 hPa North 9.3 mph /  15 km/h 9.3 mph /  15 km/h 54 % 0.0 in /  0 mm 891.0 W/m2 CLR
13:40 20.6 °F /  -6.3 °C 9.8 °F /  -12.3 °C 1026.3 in /  34750.5 hPa Calm     50 % 0.0 in /  0 mm 891.0 W/m2 CLR
13:45 20.6 °F /  -6.3 °C 10.3 °F /  -12.1 °C 1026.3 in /  34750.5 hPa Calm     52 % 0.0 in /  0 mm 893.0 W/m2 CLR
13:50 20.6 °F /  -6.3 °C 10.9 °F /  -11.7 °C 1026.3 in /  34750.5 hPa North 9.3 mph /  15 km/h 9.3 mph /  15 km/h 54 % 0.0 in /  0 mm 898.0 W/m2 CLR
13:55 21.1 °F /  -6.1 °C 11.7 °F /  -11.3 °C 1026.3 in /  34750.5 hPa Calm   0.2 mph /  0.3 km/h 55 % 0.0 in /  0 mm 898.0 W/m2 CLR
14:00 21.1 °F /  -6.1 °C 12.0 °F /  -11.1 °C 1026.0 in /  34740.4 hPa NNE 9.3 mph /  15 km/h 9.3 mph /  15 km/h 56 % 0.0 in /  0 mm 898.0 W/m2 CLR
14:05 21.1 °F /  -6.1 °C 10.0 °F /  -12.2 °C 1026.0 in /  34740.4 hPa Calm     49 % 0.0 in /  0 mm 900.0 W/m2 CLR
14:10 21.7 °F /  -5.7 °C 11.4 °F /  -11.4 °C 1026.0 in /  34740.4 hPa NNE 9.7 mph /  15.6 km/h 9.7 mph /  15.6 km/h 52 % 0.0 in /  0 mm 898.0 W/m2 CLR
14:15 21.7 °F /  -5.7 °C 10.5 °F /  -11.9 °C 1026.0 in /  34740.4 hPa NE 5.6 mph /  9 km/h   49 % 0.0 in /  0 mm 900.0 W/m2 CLR
14:20 21.1 °F /  -6.1 °C 9.3 °F /  -12.6 °C 1026.0 in /  34740.4 hPa Calm     47 % 0.0 in /  0 mm 896.0 W/m2 CLR
14:25 21.1 °F /  -6.1 °C 8.7 °F /  -12.9 °C 1026.0 in /  34740.4 hPa NW 11.1 mph /  17.9 km/h 11.1 mph /  17.9 km/h 45 % 0.0 in /  0 mm 896.0 W/m2 CLR
14:30 21.7 °F /  -5.7 °C 8.6 °F /  -13 °C 1026.0 in /  34740.4 hPa WNW 9.3 mph /  15 km/h 9.3 mph /  15 km/h 43 % 0.0 in /  0 mm 891.0 W/m2 CLR
14:35 21.7 °F /  -5.7 °C 10.5 °F /  -11.9 °C 1026.0 in /  34740.4 hPa North 4.8 mph /  7.7 km/h 4.8 mph /  7.7 km/h 49 % 0.0 in /  0 mm 888.0 W/m2 CLR
14:40 21.7 °F /  -5.7 °C 10.2 °F /  -12.1 °C 1026.0 in /  34740.4 hPa WNW 5.6 mph /  9 km/h   48 % 0.0 in /  0 mm 888.0 W/m2 CLR
14:45 21.7 °F /  -5.7 °C 9.2 °F /  -12.7 °C 1026.0 in /  34740.4 hPa NNE 5.6 mph /  9 km/h 5.6 mph /  9 km/h 45 % 0.0 in /  0 mm 882.0 W/m2 CLR
14:50 21.7 °F /  -5.7 °C 9.2 °F /  -12.7 °C 1026.0 in /  34740.4 hPa Calm     45 % 0.0 in /  0 mm 879.0 W/m2 CLR
14:55 21.1 °F /  -6.1 °C 10.0 °F /  -12.2 °C 1026.0 in /  34740.4 hPa NE 5.6 mph /  9 km/h 5.6 mph /  9 km/h 49 % 0.0 in /  0 mm 875.0 W/m2 CLR
15:00 21.7 °F /  -5.7 °C 11.7 °F /  -11.3 °C 1025.6 in /  34726.8 hPa WNW 5.6 mph /  9 km/h 5.6 mph /  9 km/h 53 % 0.0 in /  0 mm 872.0 W/m2 CLR
15:05 21.7 °F /  -5.7 °C 11.1 °F /  -11.6 °C 1025.6 in /  34726.8 hPa ENE 1.9 mph /  3.1 km/h   51 % 0.0 in /  0 mm 868.0 W/m2 CLR
15:10 21.7 °F /  -5.7 °C 10.5 °F /  -11.9 °C 1025.6 in /  34726.8 hPa ENE 9.3 mph /  15 km/h 9.3 mph /  15 km/h 49 % 0.0 in /  0 mm 860.0 W/m2 CLR
15:15 21.7 °F /  -5.7 °C 10.5 °F /  -11.9 °C 1025.6 in /  34726.8 hPa Calm   0.2 mph /  0.3 km/h 49 % 0.0 in /  0 mm 853.0 W/m2 CLR
15:20 21.7 °F /  -5.7 °C 10.2 °F /  -12.1 °C 1025.6 in /  34726.8 hPa North 3.7 mph /  6 km/h 3.7 mph /  6 km/h 48 % 0.0 in /  0 mm 851.0 W/m2 CLR
15:25 21.7 °F /  -5.7 °C 10.5 °F /  -11.9 °C 1025.3 in /  34716.7 hPa North 11.1 mph /  17.9 km/h 11.1 mph /  17.9 km/h 49 % 0.0 in /  0 mm 842.0 W/m2 CLR
15:30 22.2 °F /  -5.4 °C 9.4 °F /  -12.6 °C 1025.3 in /  34716.7 hPa Calm     44 % 0.0 in /  0 mm 831.0 W/m2 CLR
15:35 22.8 °F /  -5.1 °C 10.6 °F /  -11.9 °C 1025.3 in /  34716.7 hPa NNW 11.1 mph /  17.9 km/h 11.1 mph /  17.9 km/h 46 % 0.0 in /  0 mm 826.0 W/m2 CLR
15:40 22.2 °F /  -5.4 °C 12.4 °F /  -10.9 °C 1025.3 in /  34716.7 hPa NNW 13.0 mph /  20.9 km/h 13.0 mph /  20.9 km/h 54 % 0.0 in /  0 mm 819.0 W/m2 CLR
15:45 22.2 °F /  -5.4 °C 10.7 °F /  -11.8 °C 1025.3 in /  34716.7 hPa NW 11.1 mph /  17.9 km/h 11.1 mph /  17.9 km/h 48 % 0.0 in /  0 mm 810.0 W/m2 CLR
15:50 22.2 °F /  -5.4 °C 11.6 °F /  -11.3 °C 1025.3 in /  34716.7 hPa NNE 13.0 mph /  20.9 km/h 13.0 mph /  20.9 km/h 51 % 0.0 in /  0 mm 802.0 W/m2 CLR
15:55 22.2 °F /  -5.4 °C 10.1 °F /  -12.2 °C 1025.3 in /  34716.7 hPa NNE 6.4 mph /  10.3 km/h 6.4 mph /  10.3 km/h 46 % 0.0 in /  0 mm 793.0 W/m2 CLR
16:00 22.2 °F /  -5.4 °C 10.1 °F /  -12.2 °C 1024.9 in /  34703.1 hPa ENE 4.8 mph /  7.7 km/h 4.8 mph /  7.7 km/h 46 % 0.0 in /  0 mm 782.0 W/m2 CLR
16:05 22.8 °F /  -5.1 °C 10.9 °F /  -11.7 °C 1024.9 in /  34703.1 hPa Calm     47 % 0.0 in /  0 mm 775.0 W/m2 CLR
16:10 22.8 °F /  -5.1 °C 12.1 °F /  -11.1 °C 1024.9 in /  34703.1 hPa NW 1.6 mph /  2.6 km/h 1.6 mph /  2.6 km/h 51 % 0.0 in /  0 mm 759.0 W/m2 CLR
16:15 22.8 °F /  -5.1 °C 11.2 °F /  -11.6 °C 1024.9 in /  34703.1 hPa NE 11.1 mph /  17.9 km/h 11.1 mph /  17.9 km/h 48 % 0.0 in /  0 mm 756.0 W/m2 CLR
16:20 22.2 °F /  -5.4 °C 10.4 °F /  -12 °C 1024.9 in /  34703.1 hPa Calm     47 % 0.0 in /  0 mm 749.0 W/m2 CLR
16:25 22.2 °F /  -5.4 °C 10.7 °F /  -11.8 °C 1024.9 in /  34703.1 hPa ENE 7.4 mph /  11.9 km/h 7.4 mph /  11.9 km/h 48 % 0.0 in /  0 mm 733.0 W/m2 CLR
16:30 22.2 °F /  -5.4 °C 11.0 °F /  -11.7 °C 1024.9 in /  34703.1 hPa NNE 3.2 mph /  5.1 km/h 3.2 mph /  5.1 km/h 49 % 0.0 in /  0 mm 724.0 W/m2 CLR
16:35 22.2 °F /  -5.4 °C 11.0 °F /  -11.7 °C 1024.9 in /  34703.1 hPa NE 9.3 mph /  15 km/h 9.3 mph /  15 km/h 49 % 0.0 in /  0 mm 708.0 W/m2 CLR
16:40 22.2 °F /  -5.4 °C 10.7 °F /  -11.8 °C 1024.6 in /  34693 hPa NE 3.7 mph /  6 km/h 3.7 mph /  6 km/h 48 % 0.0 in /  0 mm 686.0 W/m2 CLR
16:45 22.8 °F /  -5.1 °C 10.9 °F /  -11.7 °C 1024.6 in /  34693 hPa NE 18.5 mph /  29.8 km/h 18.5 mph /  29.8 km/h 47 % 0.0 in /  0 mm 684.0 W/m2 CLR
16:51 22.2 °F /  -5.4 °C 10.4 °F /  -12 °C 1024.6 in /  34693 hPa NE 5.6 mph /  9 km/h 5.6 mph /  9 km/h 47 % 0.0 in /  0 mm 670.0 W/m2 CLR
16:56 22.2 °F /  -5.4 °C 11.0 °F /  -11.7 °C 1024.6 in /  34693 hPa NE 4.8 mph /  7.7 km/h 4.8 mph /  7.7 km/h 49 % 0.0 in /  0 mm 659.0 W/m2 CLR
17:01 22.2 °F /  -5.4 °C 10.7 °F /  -11.8 °C 1024.6 in /  34693 hPa Calm   0.8 mph /  1.3 km/h 48 % 0.0 in /  0 mm 647.0 W/m2 CLR
17:06 22.2 °F /  -5.4 °C 11.9 °F /  -11.2 °C 1024.6 in /  34693 hPa Calm   0.6 mph /  1 km/h 52 % 0.0 in /  0 mm 631.0 W/m2 CLR
17:11 22.2 °F /  -5.4 °C 10.7 °F /  -11.8 °C 1024.6 in /  34693 hPa North 9.3 mph /  15 km/h 9.3 mph /  15 km/h 48 % 0.0 in /  0 mm 615.0 W/m2 CLR
17:16 22.8 °F /  -5.1 °C 11.8 °F /  -11.2 °C 1024.6 in /  34693 hPa NE 11.1 mph /  17.9 km/h 11.1 mph /  17.9 km/h 50 % 0.0 in /  0 mm 603.0 W/m2 CLR
17:21 22.2 °F /  -5.4 °C 11.6 °F /  -11.3 °C 1024.6 in /  34693 hPa North 3.7 mph /  6 km/h   51 % 0.0 in /  0 mm 589.0 W/m2 CLR
17:26 22.2 °F /  -5.4 °C 11.9 °F /  -11.2 °C 1024.6 in /  34693 hPa NNW 1.9 mph /  3.1 km/h   52 % 0.0 in /  0 mm 573.0 W/m2 CLR
17:31 22.2 °F /  -5.4 °C 11.0 °F /  -11.7 °C 1024.6 in /  34693 hPa North 3.7 mph /  6 km/h 3.7 mph /  6 km/h 49 % 0.0 in /  0 mm 559.0 W/m2 CLR
17:36 22.2 °F /  -5.4 °C 10.4 °F /  -12 °C 1024.6 in /  34693 hPa NNE 9.3 mph /  15 km/h 9.3 mph /  15 km/h 47 % 0.0 in /  0 mm 543.0 W/m2 CLR
17:41 22.2 °F /  -5.4 °C 10.4 °F /  -12 °C 1024.6 in /  34693 hPa NNW 3.7 mph /  6 km/h 3.7 mph /  6 km/h 47 % 0.0 in /  0 mm 529.0 W/m2 CLR
17:46 22.2 °F /  -5.4 °C 10.4 °F /  -12 °C 1024.6 in /  34693 hPa NE 1.9 mph /  3.1 km/h   47 % 0.0 in /  0 mm 512.0 W/m2 CLR
17:51 22.2 °F /  -5.4 °C 11.0 °F /  -11.7 °C 1024.6 in /  34693 hPa NE 5.6 mph /  9 km/h 5.6 mph /  9 km/h 49 % 0.0 in /  0 mm 497.0 W/m2 CLR
17:56 22.2 °F /  -5.4 °C 11.0 °F /  -11.7 °C 1024.6 in /  34693 hPa ENE 5.6 mph /  9 km/h 5.6 mph /  9 km/h 49 % 0.0 in /  0 mm 482.0 W/m2 CLR
18:01 22.2 °F /  -5.4 °C 10.4 °F /  -12 °C 1024.6 in /  34693 hPa NE 7.4 mph /  11.9 km/h 7.4 mph /  11.9 km/h 47 % 0.0 in /  0 mm 468.0 W/m2 CLR
18:06 22.2 °F /  -5.4 °C 11.0 °F /  -11.7 °C 1024.6 in /  34693 hPa East 5.6 mph /  9 km/h 5.6 mph /  9 km/h 49 % 0.0 in /  0 mm 454.0 W/m2 CLR
18:11 22.2 °F /  -5.4 °C 11.0 °F /  -11.7 °C 1024.6 in /  34693 hPa NE 5.6 mph /  9 km/h 5.6 mph /  9 km/h 49 % 0.0 in /  0 mm 432.0 W/m2 CLR
18:16 22.2 °F /  -5.4 °C 10.7 °F /  -11.8 °C 1024.6 in /  34693 hPa NE 1.9 mph /  3.1 km/h   48 % 0.0 in /  0 mm 418.0 W/m2 CLR
18:21 22.2 °F /  -5.4 °C 10.4 °F /  -12 °C 1024.6 in /  34693 hPa NE 5.6 mph /  9 km/h 5.6 mph /  9 km/h 47 % 0.0 in /  0 mm 401.0 W/m2 CLR
18:26 21.7 °F /  -5.7 °C 10.8 °F /  -11.8 °C 1024.6 in /  34693 hPa NNE 1.9 mph /  3.1 km/h 1.9 mph /  3.1 km/h 50 % 0.0 in /  0 mm 387.0 W/m2 CLR
18:31 21.7 °F /  -5.7 °C 10.2 °F /  -12.1 °C 1024.6 in /  34693 hPa East 3.2 mph /  5.1 km/h 3.2 mph /  5.1 km/h 48 % 0.0 in /  0 mm 366.0 W/m2 CLR
18:36 21.7 °F /  -5.7 °C 10.2 °F /  -12.1 °C 1024.6 in /  34693 hPa Calm     48 % 0.0 in /  0 mm 350.0 W/m2 CLR
18:41 21.7 °F /  -5.7 °C 9.8 °F /  -12.3 °C 1024.6 in /  34693 hPa Calm     47 % 0.0 in /  0 mm 336.0 W/m2 CLR
18:46 21.7 °F /  -5.7 °C 9.8 °F /  -12.3 °C 1024.6 in /  34693 hPa NNE 9.3 mph /  15 km/h 9.3 mph /  15 km/h 47 % 0.0 in /  0 mm 322.0 W/m2 CLR
18:51 21.7 °F /  -5.7 °C 9.8 °F /  -12.3 °C 1024.9 in /  34703.1 hPa NNE 3.7 mph /  6 km/h   47 % 0.0 in /  0 mm 306.0 W/m2 CLR
18:56 21.7 °F /  -5.7 °C 9.2 °F /  -12.7 °C 1024.9 in /  34703.1 hPa NNE 5.6 mph /  9 km/h 5.6 mph /  9 km/h 45 % 0.0 in /  0 mm 285.0 W/m2 CLR
19:01 21.7 °F /  -5.7 °C 9.8 °F /  -12.3 °C 1024.9 in /  34703.1 hPa Calm     47 % 0.0 in /  0 mm 269.0 W/m2 CLR
19:06 21.7 °F /  -5.7 °C 9.2 °F /  -12.7 °C 1024.9 in /  34703.1 hPa Calm     45 % 0.0 in /  0 mm 246.0 W/m2 CLR
19:11 21.7 °F /  -5.7 °C 9.6 °F /  -12.4 °C 1024.9 in /  34703.1 hPa Calm     46 % 0.0 in /  0 mm 232.0 W/m2 CLR
19:16 21.1 °F /  -6.1 °C 8.4 °F /  -13.1 °C 1024.9 in /  34703.1 hPa Calm     44 % 0.0 in /  0 mm 206.0 W/m2 CLR
19:21 21.1 °F /  -6.1 °C 8.7 °F /  -12.9 °C 1024.9 in /  34703.1 hPa Calm     45 % 0.0 in /  0 mm 188.0 W/m2 CLR
19:26 21.1 °F /  -6.1 °C 8.4 °F /  -13.1 °C 1024.9 in /  34703.1 hPa Calm     44 % 0.0 in /  0 mm 171.0 W/m2 CLR
19:31 20.6 °F /  -6.3 °C 7.6 °F /  -13.6 °C 1024.9 in /  34703.1 hPa Calm     43 % 0.0 in /  0 mm 153.0 W/m2 CLR
19:36 20.6 °F /  -6.3 °C 6.8 °F /  -14 °C 1024.9 in /  34703.1 hPa Calm     41 % 0.0 in /  0 mm 135.0 W/m2 CLR
19:41 20.6 °F /  -6.3 °C 7.6 °F /  -13.6 °C 1024.9 in /  34703.1 hPa Calm     43 % 0.0 in /  0 mm 116.0 W/m2 OVC
19:46 20.6 °F /  -6.3 °C 7.9 °F /  -13.4 °C 1024.9 in /  34703.1 hPa Calm     44 % 0.0 in /  0 mm 98.0 W/m2 OVC
19:51 20.6 °F /  -6.3 °C 7.6 °F /  -13.6 °C 1024.9 in /  34703.1 hPa Calm     43 % 0.0 in /  0 mm 81.0 W/m2 OVC
19:56 20.0 °F /  -6.7 °C 7.4 °F /  -13.7 °C 1024.9 in /  34703.1 hPa Calm     44 % 0.0 in /  0 mm 60.0 W/m2 OVC
20:01 19.4 °F /  -7 °C 7.2 °F /  -13.8 °C 1024.9 in /  34703.1 hPa Calm     45 % 0.0 in /  0 mm 53.0 W/m2 OVC
20:06 18.9 °F /  -7.3 °C 6.4 °F /  -14.2 °C 1024.9 in /  34703.1 hPa Calm     44 % 0.0 in /  0 mm 42.0 W/m2 OVC
20:11 17.8 °F /  -7.9 °C 5.7 °F /  -14.6 °C 1024.9 in /  34703.1 hPa Calm     45 % 0.0 in /  0 mm 30.0 W/m2 OVC
20:16 17.2 °F /  -8.2 °C 5.8 °F /  -14.6 °C 1024.9 in /  34703.1 hPa Calm     47 % 0.0 in /  0 mm 21.0 W/m2 OVC
20:21 16.7 °F /  -8.5 °C 5.6 °F /  -14.7 °C 1024.9 in /  34703.1 hPa Calm     48 % 0.0 in /  0 mm 16.0 W/m2 OVC
20:26 16.7 °F /  -8.5 °C 5.6 °F /  -14.7 °C 1024.9 in /  34703.1 hPa Calm     48 % 0.0 in /  0 mm 12.0 W/m2 OVC
20:31 16.1 °F /  -8.8 °C 4.8 °F /  -15.1 °C 1024.9 in /  34703.1 hPa Calm     47 % 0.0 in /  0 mm 9.0 W/m2 OVC
20:36 15.6 °F /  -9.1 °C 4.3 °F /  -15.4 °C 1025.3 in /  34716.7 hPa Calm     47 % 0.0 in /  0 mm 5.0 W/m2 OVC
20:41 15.6 °F /  -9.1 °C 4.6 °F /  -15.2 °C 1025.3 in /  34716.7 hPa Calm     48 % 0.0 in /  0 mm 0.0 W/m2 OVC
20:46 15.6 °F /  -9.1 °C 5.7 °F /  -14.6 °C 1025.3 in /  34716.7 hPa Calm     52 % 0.0 in /  0 mm 0.0 W/m2 OVC
20:51 15.0 °F /  -9.4 °C 4.9 °F /  -15.1 °C 1025.3 in /  34716.7 hPa Calm     51 % 0.0 in /  0 mm 0.0 W/m2 OVC
20:56 15.0 °F /  -9.4 °C 5.5 °F /  -14.7 °C 1025.3 in /  34716.7 hPa Calm     53 % 0.0 in /  0 mm 0.0 W/m2 CLR
21:01 14.4 °F /  -9.8 °C 5.5 °F /  -14.7 °C 1025.3 in /  34716.7 hPa Calm     55 % 0.0 in /  0 mm 0.0 W/m2 CLR
21:06 14.4 °F /  -9.8 °C 6.8 °F /  -14 °C 1025.3 in /  34716.7 hPa Calm     60 % 0.0 in /  0 mm 0.0 W/m2 CLR
21:11 13.9 °F /  -10.1 °C 7.2 °F /  -13.8 °C 1025.6 in /  34726.8 hPa Calm     64 % 0.0 in /  0 mm 0.0 W/m2 CLR
21:16 13.9 °F /  -10.1 °C 7.4 °F /  -13.7 °C 1025.6 in /  34726.8 hPa Calm     65 % 0.0 in /  0 mm 0.0 W/m2 CLR
21:21 13.9 °F /  -10.1 °C 7.2 °F /  -13.8 °C 1025.6 in /  34726.8 hPa Calm     64 % 0.0 in /  0 mm 0.0 W/m2 CLR
21:26 13.3 °F /  -10.4 °C 7.3 °F /  -13.7 °C 1026.0 in /  34740.4 hPa Calm     67 % 0.0 in /  0 mm 0.0 W/m2 CLR
21:31 13.3 °F /  -10.4 °C 8.0 °F /  -13.3 °C 1026.0 in /  34740.4 hPa Calm     70 % 0.0 in /  0 mm 0.0 W/m2 CLR
21:36 12.8 °F /  -10.7 °C 8.1 °F /  -13.3 °C 1026.0 in /  34740.4 hPa Calm     73 % 0.0 in /  0 mm 0.0 W/m2 CLR
21:41 12.8 °F /  -10.7 °C 8.3 °F /  -13.2 °C 1026.0 in /  34740.4 hPa Calm     74 % 0.0 in /  0 mm 0.0 W/m2 CLR
21:46 12.2 °F /  -11 °C 7.9 °F /  -13.4 °C 1026.0 in /  34740.4 hPa Calm     75 % 0.0 in /  0 mm 0.0 W/m2 CLR
21:51 12.2 °F /  -11 °C 8.1 °F /  -13.3 °C 1026.3 in /  34750.5 hPa Calm     76 % 0.0 in /  0 mm 0.0 W/m2 CLR
21:56 11.7 °F /  -11.3 °C 7.6 °F /  -13.6 °C 1026.3 in /  34750.5 hPa WNW 5.6 mph /  9 km/h 5.6 mph /  9 km/h 76 % 0.0 in /  0 mm 0.0 W/m2 CLR
22:01 11.7 °F /  -11.3 °C 7.8 °F /  -13.4 °C 1026.3 in /  34750.5 hPa Calm     77 % 0.0 in /  0 mm 0.0 W/m2 CLR
22:06 11.1 °F /  -11.6 °C 7.2 °F /  -13.8 °C 1026.3 in /  34750.5 hPa Calm     77 % 0.0 in /  0 mm 0.0 W/m2 CLR
22:11 11.1 °F /  -11.6 °C 7.4 °F /  -13.7 °C 1026.3 in /  34750.5 hPa Calm     78 % 0.0 in /  0 mm 0.0 W/m2 CLR
22:16 11.1 °F /  -11.6 °C 7.4 °F /  -13.7 °C 1026.6 in /  34760.7 hPa Calm     78 % 0.0 in /  0 mm 0.0 W/m2 CLR
22:21 11.1 °F /  -11.6 °C 7.6 °F /  -13.6 °C 1026.6 in /  34760.7 hPa SW 5.6 mph /  9 km/h 5.6 mph /  9 km/h 79 % 0.0 in /  0 mm 0.0 W/m2 CLR
22:26 10.6 °F /  -11.9 °C 7.2 °F /  -13.8 °C 1026.6 in /  34760.7 hPa Calm     80 % 0.0 in /  0 mm 0.0 W/m2 CLR
22:31 10.6 °F /  -11.9 °C 7.2 °F /  -13.8 °C 1026.6 in /  34760.7 hPa Calm     80 % 0.0 in /  0 mm 0.0 W/m2 CLR
22:36 10.6 °F /  -11.9 °C 7.4 °F /  -13.7 °C 1026.6 in /  34760.7 hPa Calm     81 % 0.0 in /  0 mm 0.0 W/m2 CLR
22:41 10.0 °F /  -12.2 °C 6.9 °F /  -13.9 °C 1026.6 in /  34760.7 hPa Calm     81 % 0.0 in /  0 mm 0.0 W/m2 CLR
22:46 10.0 °F /  -12.2 °C 7.1 °F /  -13.8 °C 1026.6 in /  34760.7 hPa West 6.4 mph /  10.3 km/h 6.4 mph /  10.3 km/h 82 % 0.0 in /  0 mm 0.0 W/m2 CLR
22:51 10.0 °F /  -12.2 °C 7.1 °F /  -13.8 °C 1026.6 in /  34760.7 hPa Calm     82 % 0.0 in /  0 mm 0.0 W/m2 CLR
22:56 10.6 °F /  -11.9 °C 7.8 °F /  -13.4 °C 1027.0 in /  34774.2 hPa Calm     83 % 0.0 in /  0 mm 0.0 W/m2 CLR
23:01 10.0 °F /  -12.2 °C 7.2 °F /  -13.8 °C 1027.0 in /  34774.2 hPa Calm     83 % 0.0 in /  0 mm 0.0 W/m2 CLR
23:06 10.0 °F /  -12.2 °C 7.2 °F /  -13.8 °C 1026.6 in /  34760.7 hPa Calm     83 % 0.0 in /  0 mm 0.0 W/m2 CLR
23:11 10.0 °F /  -12.2 °C 7.4 °F /  -13.7 °C 1027.0 in /  34774.2 hPa Calm     84 % 0.0 in /  0 mm 0.0 W/m2 CLR
23:16 9.4 °F /  -12.6 °C 6.9 °F /  -13.9 °C 1027.0 in /  34774.2 hPa Calm     84 % 0.0 in /  0 mm 0.0 W/m2 CLR
23:21 9.4 °F /  -12.6 °C 6.9 °F /  -13.9 °C 1027.0 in /  34774.2 hPa Calm     84 % 0.0 in /  0 mm 0.0 W/m2 CLR
23:26 9.4 °F /  -12.6 °C 6.9 °F /  -13.9 °C 1027.0 in /  34774.2 hPa Calm     84 % 0.0 in /  0 mm 0.0 W/m2 CLR
23:31 8.9 °F /  -12.8 °C 6.5 °F /  -14.2 °C 1027.0 in /  34774.2 hPa SW 5.6 mph /  9 km/h 5.6 mph /  9 km/h 85 % 0.0 in /  0 mm 0.0 W/m2 CLR
23:36 8.9 °F /  -12.8 °C 6.5 °F /  -14.2 °C 1027.0 in /  34774.2 hPa Calm     85 % 0.0 in /  0 mm 0.0 W/m2 CLR
23:41 9.4 °F /  -12.6 °C 7.1 °F /  -13.8 °C 1027.0 in /  34774.2 hPa Calm     85 % 0.0 in /  0 mm 0.0 W/m2 CLR
23:46 9.4 °F /  -12.6 °C 7.2 °F /  -13.8 °C 1027.0 in /  34774.2 hPa Calm     86 % 0.0 in /  0 mm 0.0 W/m2 CLR
23:51 9.4 °F /  -12.6 °C 7.2 °F /  -13.8 °C 1027.0 in /  34774.2 hPa SW 6.4 mph /  10.3 km/h 6.4 mph /  10.3 km/h 86 % 0.0 in /  0 mm 0.0 W/m2 CLR
23:56 9.4 °F /  -12.6 °C 7.2 °F /  -13.8 °C 1027.0 in /  34774.2 hPa Calm     86 % 0.0 in /  0 mm 0.0 W/m2 CLR
Lo Temps de Massalio
Compliments of Weather Underground - 1.25 mb